createdAt,value
2019-02-16T19:14:01.519Z,-0.46
2019-02-16T19:16:48.849Z,-0.47
2019-02-16T19:19:27.106Z,-0.51
2019-02-16T19:22:07.220Z,-0.52
2019-02-16T19:24:56.853Z,-0.57
2019-02-16T19:27:42.955Z,-0.53
2019-02-16T19:30:33.639Z,-0.61
2019-02-16T19:33:40.493Z,-0.61
2019-02-16T19:36:22.244Z,-0.67
2019-02-16T19:38:58.479Z,-0.80
2019-02-16T19:41:37.940Z,-0.82
2019-02-16T19:44:42.254Z,-0.95
2019-02-16T19:47:36.687Z,-0.99
2019-02-16T19:50:28.364Z,-1.05
2019-02-16T19:53:07.306Z,-1.00
2019-02-16T19:55:57.402Z,-1.06
2019-02-16T19:59:03.332Z,-1.02
2019-02-16T20:01:51.881Z,-0.73
2019-02-16T20:04:53.783Z,-0.56
2019-02-16T20:08:02.279Z,-0.35
2019-02-16T20:10:55.477Z,-0.27
2019-02-16T20:13:44.245Z,-0.37
2019-02-16T20:16:43.498Z,-0.14
2019-02-16T20:19:48.831Z,-0.19
2019-02-16T20:22:40.954Z,-0.26
2019-02-16T20:25:19.569Z,-0.05
2019-02-16T20:28:03.664Z,-0.14
2019-02-16T20:30:49.429Z,-0.30
2019-02-16T20:33:29.270Z,-0.38
2019-02-16T20:36:17.754Z,-0.56
2019-02-16T20:39:05.382Z,-0.54
2019-02-16T20:41:54.699Z,-0.61
2019-02-16T20:44:53.863Z,-0.63
2019-02-16T20:47:38.904Z,-0.55
2019-02-16T20:50:18.724Z,-0.52
2019-02-16T20:53:02.051Z,-0.60
2019-02-16T20:55:48.043Z,-0.63
2019-02-16T20:58:33.114Z,-0.67
2019-02-16T21:01:13.263Z,-0.80
2019-02-16T21:04:03.486Z,-0.95
2019-02-16T21:06:59.729Z,-0.94
2019-02-16T21:09:45.162Z,-0.80
2019-02-16T21:12:30.807Z,-0.60
2019-02-16T21:15:19.192Z,-0.46
2019-02-16T21:18:07.226Z,-0.62
2019-02-16T21:20:56.761Z,-0.61
2019-02-16T21:23:35.335Z,-0.49
2019-02-16T21:26:36.899Z,-0.63
2019-02-16T21:29:30.268Z,-0.80
2019-02-16T21:32:06.949Z,-0.53
2019-02-16T21:34:56.900Z,-0.62
2019-02-16T21:37:42.747Z,-0.72
2019-02-16T21:40:28.677Z,-0.75
2019-02-16T21:43:32.183Z,-0.90
2019-02-16T21:46:17.936Z,-0.94
2019-02-16T21:49:03.971Z,-1.01
2019-02-16T21:51:49.951Z,-1.12
2019-02-16T21:54:31.641Z,-1.22
2019-02-16T21:57:21.674Z,-1.22
2019-02-16T22:00:07.889Z,-1.27
2019-02-16T22:02:42.660Z,-1.28
2019-02-16T22:05:38.538Z,-1.34
2019-02-16T22:08:25.179Z,-1.31
2019-02-16T22:11:09.617Z,-1.33
2019-02-16T22:13:38.406Z,-1.33
2019-02-16T22:16:06.046Z,-1.46
2019-02-16T22:18:33.679Z,-1.36
2019-02-16T22:21:01.457Z,-1.36
2019-02-16T22:23:30.339Z,-1.36
2019-02-16T22:25:58.129Z,-1.42
2019-02-16T22:28:30.996Z,-1.52
2019-02-16T22:30:55.624Z,-1.49
2019-02-16T22:33:23.635Z,-1.53
2019-02-16T22:35:51.474Z,-1.66
2019-02-16T22:38:19.338Z,-1.74
2019-02-16T22:40:47.104Z,-1.74
2019-02-16T22:43:14.887Z,-1.80
2019-02-16T22:45:42.620Z,-1.75
2019-02-16T22:48:10.330Z,-1.73
2019-02-16T22:50:39.792Z,-1.77
2019-02-16T22:53:08.151Z,-1.80
2019-02-16T22:55:36.025Z,-1.78
2019-02-16T22:58:03.981Z,-1.77
2019-02-16T23:00:48.587Z,-1.73
2019-02-16T23:03:23.209Z,-1.65
2019-02-16T23:05:50.976Z,-1.70
2019-02-16T23:08:18.725Z,-1.71
2019-02-16T23:10:46.306Z,-1.76
2019-02-16T23:13:14.057Z,-1.73
2019-02-16T23:15:41.659Z,-1.78
2019-02-16T23:18:09.666Z,-1.83
2019-02-16T23:20:37.365Z,-1.93
2019-02-16T23:23:05.060Z,-1.96
2019-02-16T23:25:32.793Z,-1.99
2019-02-16T23:28:00.461Z,-1.92
2019-02-16T23:30:27.975Z,-1.99
2019-02-16T23:32:57.044Z,-1.99
2019-02-16T23:35:25.186Z,-2.04
2019-02-16T23:37:52.989Z,-2.05
2019-02-16T23:40:20.747Z,-2.13
2019-02-16T23:42:48.417Z,-2.10
2019-02-16T23:45:16.047Z,-2.14
2019-02-16T23:47:43.794Z,-2.12
2019-02-16T23:50:11.607Z,-2.06
2019-02-16T23:52:39.327Z,-2.10
2019-02-16T23:55:08.429Z,-2.17
2019-02-16T23:57:36.182Z,-2.13
